Time;durP1;ratioP1;P1;durP2;ratioP2;P2;SDS_P1;SDS_P2;PMS_P1;PMS_P2;Temp;Humidity;BMP_temperature;BMP_pressure;BME280_temperature;BME280_humidity;BME280_pressure;Samples;Min_cycle;Max_cycle;Signal;HPM_P1;HPM_P2
2023/03/17 03:00:32;;;;;;;11.77;10.83;;;4.20;99.90;;;;;;5982870;23;20173;-76
2023/03/17 03:02:59;;;;;;;11.47;10.40;;;4.10;99.90;;;;;;4945343;29;20198;-76
2023/03/17 03:05:27;;;;;;;11.13;10.23;;;4.10;99.90;;;;;;4949020;28;20257;-76
2023/03/17 03:07:54;;;;;;;11.53;10.53;;;4.00;99.90;;;;;;4951306;29;20574;-77
2023/03/17 03:10:21;;;;;;;11.87;10.80;;;4.00;99.90;;;;;;4950841;28;20206;-77
2023/03/17 03:12:48;;;;;;;11.77;10.70;;;4.00;99.90;;;;;;4950510;29;20642;-77
2023/03/17 03:15:15;;;;;;;11.77;10.77;;;4.00;99.90;;;;;;4949434;29;20712;-76
2023/03/17 03:17:43;;;;;;;11.80;10.70;;;4.00;99.90;;;;;;4951190;29;20201;-77
2023/03/17 03:20:11;;;;;;;12.10;11.00;;;4.00;99.90;;;;;;4942748;29;20211;-76
2023/03/17 03:22:38;;;;;;;11.43;10.53;;;4.00;99.90;;;;;;4947824;28;20226;-76
2023/03/17 03:25:06;;;;;;;12.13;11.03;;;4.00;99.90;;;;;;4952188;29;20257;-77
2023/03/17 03:27:33;;;;;;;12.13;11.13;;;4.10;99.90;;;;;;4950484;29;20592;-75
2023/03/17 03:30:00;;;;;;;11.90;10.90;;;4.10;99.90;;;;;;4942721;29;20665;-76
2023/03/17 03:32:26;;;;;;;11.77;10.77;;;4.10;99.90;;;;;;4953703;29;20273;-77
2023/03/17 03:34:55;;;;;;;11.63;10.57;;;4.10;99.90;;;;;;4951095;29;20253;-76
2023/03/17 03:37:22;;;;;;;11.43;10.43;;;4.10;99.90;;;;;;4941010;28;20230;-77
2023/03/17 03:39:49;;;;;;;11.43;10.53;;;4.10;99.90;;;;;;4948260;29;20265;-76
2023/03/17 03:42:16;;;;;;;11.60;10.63;;;4.10;99.90;;;;;;4951262;29;20218;-83
2023/03/17 03:44:43;;;;;;;10.80;10.00;;;4.10;99.90;;;;;;4946516;29;20698;-76
2023/03/17 03:47:10;;;;;;;10.80;9.90;;;4.10;99.90;;;;;;4944771;29;20212;-77
2023/03/17 03:49:37;;;;;;;11.17;10.17;;;4.10;99.90;;;;;;4951469;29;20205;-76
2023/03/17 03:52:06;;;;;;;11.40;10.43;;;4.10;99.90;;;;;;4952166;29;20727;-82
2023/03/17 03:54:33;;;;;;;10.60;9.80;;;4.00;99.90;;;;;;4927782;29;20252;-82
2023/03/17 03:57:00;;;;;;;11.13;10.23;;;4.00;99.90;;;;;;4948326;29;20262;-83
2023/03/17 03:59:27;;;;;;;10.83;9.93;;;4.00;99.90;;;;;;4937047;28;20296;-82
2023/03/17 04:01:53;;;;;;;11.80;10.70;;;4.00;99.90;;;;;;4931031;29;20234;-83
2023/03/17 04:04:21;;;;;;;11.93;10.83;;;4.00;99.90;;;;;;4935466;29;20196;-82
2023/03/17 04:06:48;;;;;;;13.13;11.00;;;4.00;99.90;;;;;;4931199;29;20254;-82
2023/03/17 04:09:16;;;;;;;11.87;10.87;;;3.90;99.90;;;;;;4933797;29;20218;-82
2023/03/17 04:11:43;;;;;;;11.73;10.70;;;3.90;99.90;;;;;;4934505;29;20808;-80
2023/03/17 04:14:10;;;;;;;12.30;11.07;;;3.90;99.90;;;;;;4941576;29;20289;-83
2023/03/17 04:16:37;;;;;;;11.27;10.43;;;3.80;99.90;;;;;;4941376;29;20194;-80
2023/03/17 04:19:04;;;;;;;11.33;10.43;;;3.80;99.90;;;;;;4948289;29;20719;-80
2023/03/17 04:21:30;;;;;;;11.43;10.53;;;3.70;99.90;;;;;;4952449;29;20233;-80
2023/03/17 04:23:57;;;;;;;11.40;10.50;;;3.70;99.90;;;;;;4945419;29;20241;-80
2023/03/17 04:26:26;;;;;;;12.07;10.87;;;3.60;99.90;;;;;;4935681;29;20575;-80
2023/03/17 04:28:53;;;;;;;12.00;11.00;;;3.60;99.90;;;;;;4947077;29;20199;-79
2023/03/17 04:31:20;;;;;;;11.83;10.73;;;3.50;99.90;;;;;;4945019;29;20644;-79
2023/03/17 04:33:47;;;;;;;11.87;10.87;;;3.50;99.90;;;;;;4948224;28;20216;-80
2023/03/17 04:36:18;;;;;;;12.43;11.33;;;3.50;99.90;;;;;;4946243;28;20668;-80
2023/03/17 04:38:45;;;;;;;12.93;11.83;;;3.40;99.90;;;;;;4940082;29;20580;-79
2023/03/17 04:41:12;;;;;;;11.93;10.83;;;3.40;99.90;;;;;;4940437;29;20282;-78
2023/03/17 04:43:41;;;;;;;12.00;11.00;;;3.30;99.90;;;;;;4944471;29;20199;-78
2023/03/17 04:46:08;;;;;;;12.80;11.50;;;3.30;99.90;;;;;;4948660;29;20202;-78
2023/03/17 04:48:35;;;;;;;12.03;11.00;;;3.20;99.90;;;;;;4952109;29;20226;-77
2023/03/17 04:51:02;;;;;;;12.10;11.10;;;3.20;99.90;;;;;;4940874;29;20235;-79
2023/03/17 04:53:28;;;;;;;11.97;10.97;;;3.20;99.90;;;;;;4966231;28;20211;-79
2023/03/17 04:55:56;;;;;;;11.10;10.13;;;3.20;99.90;;;;;;4946827;29;20199;-79
2023/03/17 04:58:23;;;;;;;11.87;10.77;;;3.10;99.90;;;;;;4953726;29;20194;-78
2023/03/17 05:00:51;;;;;;;11.87;10.87;;;3.10;99.90;;;;;;4950717;28;20237;-78
2023/03/17 05:03:18;;;;;;;11.90;10.80;;;3.10;99.90;;;;;;4942431;29;20199;-79
2023/03/17 05:05:46;;;;;;;12.00;11.07;;;3.00;99.90;;;;;;4948128;29;20194;-77
2023/03/17 05:08:13;;;;;;;12.10;11.10;;;2.90;99.90;;;;;;4939733;29;20616;-77
2023/03/17 05:10:40;;;;;;;12.80;11.60;;;2.90;99.90;;;;;;4950127;28;20203;-78
2023/03/17 05:13:07;;;;;;;11.97;10.90;;;2.90;99.90;;;;;;4950931;29;20683;-79
2023/03/17 05:15:33;;;;;;;11.53;10.57;;;2.80;99.90;;;;;;4939648;29;20203;-78
2023/03/17 05:18:02;;;;;;;12.03;11.03;;;2.80;99.90;;;;;;4950404;29;20203;-78
2023/03/17 05:20:29;;;;;;;12.70;11.53;;;2.70;99.90;;;;;;4950074;29;20195;-79
2023/03/17 05:22:55;;;;;;;12.60;11.60;;;2.70;99.90;;;;;;4941866;29;20199;-78
2023/03/17 05:25:22;;;;;;;11.60;10.70;;;2.60;99.90;;;;;;4948055;29;20191;-78
2023/03/17 05:27:49;;;;;;;13.67;12.47;;;2.60;99.90;;;;;;4948782;29;20234;-77
2023/03/17 05:30:16;;;;;;;14.80;13.50;;;2.60;99.90;;;;;;4949648;29;20196;-77
2023/03/17 05:32:43;;;;;;;14.20;13.00;;;2.60;99.90;;;;;;4951355;29;20277;-78
2023/03/17 05:35:11;;;;;;;13.37;12.17;;;2.60;99.90;;;;;;4953071;29;20219;-78
2023/03/17 05:37:38;;;;;;;12.40;11.40;;;2.60;99.90;;;;;;4949393;29;20195;-79
2023/03/17 05:40:07;;;;;;;12.47;11.37;;;2.60;99.90;;;;;;4949121;28;20211;-79
2023/03/17 05:42:33;;;;;;;12.40;11.30;;;2.70;99.90;;;;;;4948573;29;20218;-78
2023/03/17 05:45:00;;;;;;;12.80;11.70;;;2.70;99.90;;;;;;4939272;29;20258;-77
2023/03/17 05:47:27;;;;;;;11.80;10.80;;;2.70;99.90;;;;;;4935542;29;20208;-77
2023/03/17 05:49:54;;;;;;;12.40;11.27;;;2.80;99.90;;;;;;4949108;29;20207;-78
2023/03/17 05:52:22;;;;;;;12.40;11.50;;;2.90;99.90;;;;;;4955460;29;20233;-78
2023/03/17 05:54:50;;;;;;;12.63;11.47;;;3.00;99.90;;;;;;4933422;29;20254;-79
2023/03/17 05:57:17;;;;;;;12.37;11.27;;;3.10;99.90;;;;;;4933718;29;20243;-79
2023/03/17 05:59:44;;;;;;;12.17;11.07;;;3.30;99.90;;;;;;4939185;29;20674;-80
2023/03/17 06:02:13;;;;;;;14.60;12.70;;;3.30;99.90;;;;;;4940576;29;20227;-78
2023/03/17 06:04:40;;;;;;;13.33;12.13;;;3.40;99.90;;;;;;4940167;29;20721;-79
2023/03/17 06:07:08;;;;;;;12.80;11.60;;;3.40;99.90;;;;;;4951020;29;20223;-79
2023/03/17 06:09:37;;;;;;;12.10;11.10;;;3.40;99.90;;;;;;4955012;29;20315;-78
2023/03/17 06:12:05;;;;;;;11.93;10.77;;;3.50;99.90;;;;;;4954448;29;20226;-78
2023/03/17 06:14:32;;;;;;;11.60;10.60;;;3.60;99.90;;;;;;4951600;29;20308;-77
2023/03/17 06:16:59;;;;;;;12.97;11.70;;;3.70;99.90;;;;;;4947056;29;20258;-79
2023/03/17 06:19:26;;;;;;;11.70;10.90;;;3.90;99.90;;;;;;4953487;28;20296;-78
2023/03/17 06:21:53;;;;;;;12.73;11.73;;;4.00;99.90;;;;;;4952832;29;20285;-79
2023/03/17 06:24:20;;;;;;;12.43;11.23;;;4.20;99.90;;;;;;4950735;29;20199;-79
2023/03/17 06:26:48;;;;;;;11.53;10.63;;;4.50;99.90;;;;;;4953803;29;20288;-78
2023/03/17 06:29:15;;;;;;;12.83;11.73;;;4.60;99.90;;;;;;4953362;29;20229;-77
2023/03/17 06:31:49;;;;;;;11.60;10.80;;;4.60;99.90;;;;;;4950330;29;20650;-78
2023/03/17 06:34:15;;;;;;;11.70;10.90;;;4.60;99.90;;;;;;4940824;29;20218;-78
2023/03/17 06:36:42;;;;;;;12.20;11.10;;;4.60;99.90;;;;;;4949501;29;20693;-79
2023/03/17 06:39:09;;;;;;;11.50;10.70;;;4.70;99.90;;;;;;4946733;29;20211;-78
2023/03/17 06:41:36;;;;;;;11.87;10.97;;;4.80;99.90;;;;;;4967461;28;20223;-79
2023/03/17 06:44:05;;;;;;;11.40;10.60;;;5.00;99.90;;;;;;4944651;29;20210;-78
2023/03/17 06:46:32;;;;;;;12.27;11.37;;;5.20;99.90;;;;;;4939826;29;20204;-79
2023/03/17 06:49:00;;;;;;;12.00;11.10;;;5.40;99.90;;;;;;4953551;29;20200;-78
2023/03/17 06:51:27;;;;;;;10.03;9.23;;;5.70;99.90;;;;;;4937644;29;20316;-78
2023/03/17 06:53:54;;;;;;;9.20;8.50;;;6.10;99.90;;;;;;4942425;29;20213;-79
2023/03/17 06:56:21;;;;;;;12.93;11.90;;;6.40;99.90;;;;;;4951343;29;20205;-79
2023/03/17 06:58:47;;;;;;;12.80;11.80;;;6.70;99.90;;;;;;4945673;29;20285;-79
2023/03/17 07:01:16;;;;;;;12.27;11.37;;;7.00;99.90;;;;;;4947106;29;20602;-79
2023/03/17 07:03:44;;;;;;;12.83;11.60;;;7.20;99.90;;;;;;4948233;29;20652;-79
2023/03/17 07:06:11;;;;;;;12.00;11.10;;;7.60;99.90;;;;;;4950634;29;20218;-80
2023/03/17 07:08:37;;;;;;;10.30;9.30;;;7.90;99.90;;;;;;4948866;29;20637;-79
2023/03/17 07:11:04;;;;;;;6.23;4.73;;;8.20;99.90;;;;;;4950083;29;20218;-78
2023/03/17 07:13:34;;;;;;;10.80;9.90;;;8.60;99.90;;;;;;4932689;29;20207;-79
2023/03/17 07:16:01;;;;;;;7.30;5.70;;;8.90;99.90;;;;;;4939738;29;20222;-79
2023/03/17 07:18:30;;;;;;;11.37;10.57;;;9.10;99.90;;;;;;4942306;29;20198;-79
2023/03/17 07:20:57;;;;;;;10.97;10.00;;;9.20;99.90;;;;;;4949354;29;20223;-79
2023/03/17 07:23:25;;;;;;;9.33;8.50;;;9.30;99.90;;;;;;4945297;29;20649;-79
2023/03/17 07:25:51;;;;;;;9.70;9.00;;;9.30;99.90;;;;;;4933336;29;20656;-79
2023/03/17 07:28:20;;;;;;;10.17;9.27;;;9.30;99.90;;;;;;4952385;29;20702;-80
2023/03/17 07:30:48;;;;;;;10.03;7.87;;;9.50;99.90;;;;;;4946783;29;20250;-79
2023/03/17 07:33:16;;;;;;;10.47;9.67;;;9.80;99.90;;;;;;4942373;28;20214;-80
2023/03/17 07:35:44;;;;;;;11.40;10.53;;;10.00;99.90;;;;;;4945699;29;20225;-79
2023/03/17 07:38:11;;;;;;;11.17;10.17;;;10.30;99.90;;;;;;4931425;29;20198;-79
2023/03/17 07:40:38;;;;;;;10.83;9.80;;;10.60;99.90;;;;;;4949357;29;20236;-80
2023/03/17 07:43:05;;;;;;;10.57;9.77;;;10.80;99.90;;;;;;4938100;29;20214;-79
2023/03/17 07:45:33;;;;;;;11.30;10.40;;;10.90;99.90;;;;;;4946105;29;20228;-80
2023/03/17 07:48:00;;;;;;;10.87;10.07;;;11.10;99.90;;;;;;4946082;29;20203;-80
2023/03/17 07:50:27;;;;;;;10.80;10.00;;;11.10;99.90;;;;;;4947862;29;20211;-80
2023/03/17 07:52:56;;;;;;;11.83;10.83;;;11.10;99.90;;;;;;4943609;29;20220;-79
2023/03/17 07:55:23;;;;;;;11.07;10.27;;;11.20;99.90;;;;;;4938985;29;20230;-79
2023/03/17 07:57:51;;;;;;;11.00;10.00;;;11.50;99.90;;;;;;4939859;29;20231;-80
2023/03/17 08:00:22;;;;;;;11.17;10.33;;;11.90;99.90;;;;;;4937207;29;20207;-80
2023/03/17 08:02:49;;;;;;;5.63;4.53;;;12.00;99.90;;;;;;4952642;29;20202;-79
2023/03/17 08:05:16;;;;;;;7.43;4.93;;;12.00;99.90;;;;;;4939642;29;20199;-79
2023/03/17 08:07:43;;;;;;;5.10;3.93;;;11.80;99.90;;;;;;4944263;28;20238;-79
2023/03/17 08:10:12;;;;;;;9.70;8.90;;;11.90;99.90;;;;;;4944014;28;20266;-79
2023/03/17 08:12:40;;;;;;;5.43;4.43;;;11.90;99.90;;;;;;4948186;29;20210;-79
2023/03/17 08:15:08;;;;;;;5.83;4.53;;;12.00;99.90;;;;;;4958467;28;20234;-79
2023/03/17 08:17:35;;;;;;;9.13;8.23;;;12.20;99.90;;;;;;4954374;29;20254;-79
2023/03/17 08:20:03;;;;;;;9.63;8.87;;;12.60;99.90;;;;;;4949854;29;20247;-80
2023/03/17 08:22:31;;;;;;;10.03;9.23;;;12.50;99.90;;;;;;4956543;28;20224;-79
2023/03/17 08:24:58;;;;;;;10.10;9.40;;;12.60;99.90;;;;;;4947412;28;20245;-79
2023/03/17 08:27:26;;;;;;;9.57;8.87;;;12.80;99.90;;;;;;4939446;29;20218;-79
2023/03/17 08:29:53;;;;;;;10.00;9.30;;;12.90;99.90;;;;;;4952168;28;20598;-79
2023/03/17 08:32:20;;;;;;;4.70;4.23;;;12.90;99.90;;;;;;4933998;28;20753;-79
2023/03/17 08:34:47;;;;;;;7.30;6.60;;;13.20;99.90;;;;;;4951170;29;20219;-79
2023/03/17 08:37:14;;;;;;;5.30;4.80;;;13.40;99.90;;;;;;4942890;29;20209;-78
2023/03/17 08:39:40;;;;;;;8.07;7.37;;;13.50;99.90;;;;;;4932586;29;20199;-79
2023/03/17 08:42:07;;;;;;;5.37;3.97;;;13.50;99.90;;;;;;4946177;29;20236;-79
2023/03/17 08:44:36;;;;;;;5.77;5.23;;;13.50;99.90;;;;;;4946580;29;20221;-80
2023/03/17 08:47:03;;;;;;;9.37;8.57;;;13.30;99.90;;;;;;4940766;29;20226;-79
2023/03/17 08:49:33;;;;;;;7.70;6.97;;;13.10;99.90;;;;;;4937978;29;20710;-79
2023/03/17 08:52:00;;;;;;;7.90;7.20;;;12.90;99.90;;;;;;4928823;29;20220;-80
2023/03/17 08:54:27;;;;;;;7.20;6.53;;;12.90;99.90;;;;;;4941331;29;20235;-79
2023/03/17 08:56:54;;;;;;;7.77;7.17;;;13.00;99.90;;;;;;4940556;29;20258;-79
2023/03/17 08:59:20;;;;;;;9.03;8.27;;;13.00;99.90;;;;;;4924973;29;20204;-79
2023/03/17 09:01:49;;;;;;;8.10;7.50;;;13.00;99.90;;;;;;4943510;29;20222;-79
2023/03/17 09:04:16;;;;;;;4.90;4.43;;;13.30;99.90;;;;;;4953601;29;20284;-78
2023/03/17 09:06:42;;;;;;;7.47;5.00;;;13.30;99.90;;;;;;4946457;29;20346;-79
2023/03/17 09:09:09;;;;;;;5.40;4.30;;;13.50;99.90;;;;;;4939206;29;20251;-80
2023/03/17 09:11:36;;;;;;;6.13;5.53;;;13.90;99.90;;;;;;4950878;29;20567;-80
2023/03/17 09:14:04;;;;;;;6.77;6.03;;;14.20;99.90;;;;;;4933278;29;20261;-79
2023/03/17 09:16:32;;;;;;;5.73;5.23;;;14.50;99.90;;;;;;4950484;29;20217;-78
2023/03/17 09:19:01;;;;;;;6.83;5.40;;;14.70;99.90;;;;;;4942329;28;20672;-80
2023/03/17 09:21:27;;;;;;;6.37;5.87;;;15.10;99.90;;;;;;4945307;28;20228;-78
2023/03/17 09:23:54;;;;;;;5.20;3.93;;;15.30;99.90;;;;;;4948240;29;20202;-79
2023/03/17 09:26:23;;;;;;;5.03;3.97;;;15.30;99.90;;;;;;4940814;29;20208;-79
2023/03/17 09:28:51;;;;;;;5.83;5.33;;;15.20;99.90;;;;;;4950023;28;20203;-79
2023/03/17 09:31:18;;;;;;;4.47;3.43;;;15.10;99.90;;;;;;4945214;29;20224;-78
2023/03/17 09:33:46;;;;;;;4.53;3.63;;;15.00;99.90;;;;;;4955378;29;20213;-79
2023/03/17 09:36:14;;;;;;;4.87;3.97;;;14.70;99.90;;;;;;4945335;29;20225;-79
2023/03/17 09:38:41;;;;;;;4.47;3.57;;;14.50;99.90;;;;;;4948487;29;20192;-79
2023/03/17 09:41:28;;;;;;;5.47;3.77;;;14.50;99.90;;;;;;4937126;29;20771;-79
2023/03/17 09:44:07;;;;;;;4.33;3.83;;;14.50;99.90;;;;;;4949069;29;20257;-79
2023/03/17 09:46:45;;;;;;;6.67;4.20;;;14.60;99.90;;;;;;4947800;29;20231;-79
2023/03/17 09:49:15;;;;;;;9.00;8.20;;;14.80;99.90;;;;;;4936866;29;20265;-80
2023/03/17 09:51:45;;;;;;;9.17;8.37;;;15.10;99.90;;;;;;4932055;29;20222;-79
2023/03/17 09:54:17;;;;;;;6.83;5.80;;;15.10;99.90;;;;;;4938087;29;20211;-79
2023/03/17 09:56:50;;;;;;;8.37;7.50;;;15.30;99.90;;;;;;4930499;29;20258;-80
2023/03/17 09:59:29;;;;;;;7.77;6.60;;;15.60;99.90;;;;;;4933378;29;20259;-79
2023/03/17 10:01:56;;;;;;;9.67;8.70;;;15.70;99.90;;;;;;4954669;28;20237;-80
2023/03/17 10:04:23;;;;;;;8.57;7.97;;;16.00;99.90;;;;;;4953826;29;20214;-80
2023/03/17 10:06:55;;;;;;;9.30;8.60;;;16.10;99.90;;;;;;4957995;28;20199;-80
2023/03/17 10:09:31;;;;;;;10.20;9.13;;;16.30;99.90;;;;;;4941904;29;20207;-80
2023/03/17 10:12:04;;;;;;;11.17;9.33;;;16.10;99.90;;;;;;4936519;29;20215;-79
2023/03/17 10:14:51;;;;;;;9.67;8.87;;;16.10;99.90;;;;;;4950491;29;20208;-80
2023/03/17 10:17:20;;;;;;;9.17;8.47;;;16.30;99.90;;;;;;4950871;29;20327;-79
2023/03/17 10:19:55;;;;;;;6.70;6.03;;;16.40;99.90;;;;;;4957399;28;20666;-80
2023/03/17 10:22:30;;;;;;;8.73;7.90;;;16.30;99.90;;;;;;4948713;29;20733;-79
2023/03/17 10:25:02;;;;;;;7.43;6.83;;;16.30;99.90;;;;;;4952936;29;20195;-79
2023/03/17 10:27:34;;;;;;;6.47;5.87;;;16.30;99.90;;;;;;4952959;29;20214;-79
2023/03/17 10:30:00;;;;;;;7.27;6.67;;;16.40;99.90;;;;;;4933405;29;20203;-80
2023/03/17 10:32:30;;;;;;;7.93;6.70;;;16.50;99.90;;;;;;4951120;28;20231;-80
2023/03/17 10:34:57;;;;;;;6.00;5.50;;;16.70;99.90;;;;;;4965663;28;20204;-80
2023/03/17 10:37:28;;;;;;;5.90;5.40;;;16.90;99.90;;;;;;4949274;29;20270;-79
2023/03/17 10:39:58;;;;;;;6.53;5.93;;;17.00;99.90;;;;;;4959619;28;20248;-80
2023/03/17 10:42:27;;;;;;;6.33;4.07;;;17.30;99.90;;;;;;4937516;29;20653;-79
2023/03/17 10:44:56;;;;;;;8.27;7.57;;;17.40;99.90;;;;;;4940700;29;20253;-79
2023/03/17 10:47:28;;;;;;;8.50;7.80;;;17.50;99.90;;;;;;4945238;29;20689;-79
2023/03/17 10:49:57;;;;;;;6.07;5.53;;;17.60;99.90;;;;;;4949710;29;20203;-79
2023/03/17 10:52:29;;;;;;;6.07;5.57;;;17.60;99.90;;;;;;4951706;29;20282;-78
2023/03/17 10:55:00;;;;;;;6.20;5.70;;;17.60;99.90;;;;;;4946987;29;20216;-80
2023/03/17 10:57:28;;;;;;;6.43;5.83;;;17.50;99.90;;;;;;4953189;29;20672;-79
2023/03/17 10:59:57;;;;;;;6.70;5.90;;;17.40;99.90;;;;;;4942603;29;20202;-80
2023/03/17 11:02:28;;;;;;;6.90;6.30;;;17.30;99.90;;;;;;4928783;29;20222;-79
2023/03/17 11:05:00;;;;;;;6.30;5.70;;;17.40;99.90;;;;;;4935457;29;20205;-79
2023/03/17 11:07:36;;;;;;;6.93;6.40;;;17.40;99.90;;;;;;4934196;28;20280;-80
2023/03/17 11:10:14;;;;;;;6.73;6.13;;;17.50;99.90;;;;;;4939673;29;20252;-80
2023/03/17 11:12:41;;;;;;;6.60;6.00;;;17.50;99.90;;;;;;4931303;29;20231;-80
2023/03/17 11:15:14;;;;;;;7.10;6.50;;;17.50;99.90;;;;;;4938679;29;20273;-80
2023/03/17 11:17:51;;;;;;;7.60;6.90;;;17.60;99.90;;;;;;4932878;29;20206;-80
2023/03/17 11:20:41;;;;;;;7.30;6.80;;;17.70;99.90;;;;;;4933923;29;20206;-81
2023/03/17 11:23:17;;;;;;;7.40;6.70;;;17.90;99.90;;;;;;4930953;29;20205;-82
2023/03/17 11:25:48;;;;;;;7.80;7.20;;;18.00;99.90;;;;;;4933720;29;20196;-79
2023/03/17 11:28:19;;;;;;;6.70;6.20;;;18.20;99.90;;;;;;4932168;29;20265;-78
2023/03/17 11:30:56;;;;;;;7.37;6.70;;;18.20;99.90;;;;;;4926319;29;20233;-78
2023/03/17 11:33:33;;;;;;;8.23;7.53;;;18.20;99.90;;;;;;4936414;29;20739;-78
2023/03/17 11:36:08;;;;;;;8.70;8.07;;;18.20;99.90;;;;;;4934741;29;20273;-76
2023/03/17 11:38:40;;;;;;;10.00;9.30;;;18.40;99.90;;;;;;4937452;29;20237;-79
2023/03/17 11:41:30;;;;;;;9.10;8.40;;;18.30;99.90;;;;;;4936203;29;20636;-77
2023/03/17 11:44:18;;;;;;;9.23;8.40;;;18.40;99.90;;;;;;4932479;29;20202;-78
2023/03/17 11:46:50;;;;;;;9.13;8.43;;;18.40;99.90;;;;;;4927037;29;20202;-78
2023/03/17 11:49:21;;;;;;;9.00;8.40;;;18.30;99.90;;;;;;4936654;29;20254;-78
2023/03/17 11:52:00;;;;;;;8.90;8.30;;;18.20;99.90;;;;;;4936038;29;20659;-79
2023/03/17 11:54:38;;;;;;;9.40;8.80;;;18.10;99.90;;;;;;4935893;29;20744;-78
2023/03/17 11:57:11;;;;;;;9.17;8.47;;;18.00;99.90;;;;;;4929560;29;20218;-77
2023/03/17 11:59:41;;;;;;;9.40;8.80;;;17.90;99.90;;;;;;4936289;29;20283;-77
2023/03/17 12:02:18;;;;;;;9.37;8.77;;;17.80;99.90;;;;;;4936121;29;20233;-77
2023/03/17 12:04:53;;;;;;;9.80;9.00;;;17.80;99.90;;;;;;4950767;28;20209;-78
2023/03/17 12:07:23;;;;;;;9.07;8.47;;;17.80;99.90;;;;;;4936139;29;20257;-77
2023/03/17 12:10:01;;;;;;;8.77;8.10;;;17.90;99.90;;;;;;4937681;29;20209;-78
2023/03/17 12:12:33;;;;;;;8.40;7.70;;;18.00;99.90;;;;;;4936686;29;20301;-78
2023/03/17 12:15:04;;;;;;;8.30;7.80;;;18.20;99.90;;;;;;4938631;29;20281;-80
2023/03/17 12:17:35;;;;;;;8.70;8.10;;;18.30;99.90;;;;;;4940466;29;20226;-80
2023/03/17 12:20:15;;;;;;;8.70;8.10;;;18.40;99.90;;;;;;4938409;29;20265;-80
2023/03/17 12:22:47;;;;;;;8.67;8.17;;;18.70;99.90;;;;;;4949705;29;20236;-80
2023/03/17 12:25:23;;;;;;;10.30;9.50;;;18.90;99.90;;;;;;4954452;29;20209;-80
2023/03/17 12:27:58;;;;;;;11.50;9.10;;;18.90;99.90;;;;;;4953160;28;20200;-80
2023/03/17 12:30:29;;;;;;;9.67;9.00;;;18.90;99.90;;;;;;4947773;29;20260;-81
2023/03/17 12:33:05;;;;;;;9.03;8.43;;;18.90;99.90;;;;;;4936764;29;20199;-81
2023/03/17 12:35:35;;;;;;;8.93;8.33;;;18.90;99.90;;;;;;4951358;29;20254;-80
2023/03/17 12:38:08;;;;;;;8.90;8.30;;;19.00;99.90;;;;;;4946814;28;20685;-80
2023/03/17 12:40:53;;;;;;;8.80;8.20;;;19.20;99.90;;;;;;4952754;29;20194;-81
2023/03/17 12:43:37;;;;;;;8.67;8.03;;;19.10;99.90;;;;;;4944638;29;20200;-80
2023/03/17 12:46:19;;;;;;;8.97;8.30;;;19.20;99.90;;;;;;4943193;29;20194;-81
2023/03/17 12:49:07;;;;;;;8.30;7.60;;;19.40;99.90;;;;;;4953010;29;20724;-80
2023/03/17 12:51:44;;;;;;;9.00;8.40;;;19.40;99.90;;;;;;4948586;29;20234;-80
2023/03/17 12:54:15;;;;;;;8.53;7.93;;;19.50;99.90;;;;;;4950869;29;20875;-81
2023/03/17 12:56:47;;;;;;;9.17;8.37;;;19.50;99.90;;;;;;4940869;29;20282;-84
2023/03/17 12:59:18;;;;;;;8.77;8.13;;;19.50;99.90;;;;;;4943640;29;20662;-82
2023/03/17 13:01:52;;;;;;;9.10;8.40;;;19.50;99.90;;;;;;4945679;29;20607;-82
2023/03/17 13:04:23;;;;;;;8.83;8.23;;;19.50;99.90;;;;;;4934972;29;20217;-82
2023/03/17 13:06:58;;;;;;;9.17;8.53;;;19.40;99.90;;;;;;4940262;28;20273;-82
2023/03/17 13:09:36;;;;;;;8.83;7.93;;;19.40;99.90;;;;;;4947079;28;20207;-82
2023/03/17 13:12:06;;;;;;;9.10;8.50;;;19.40;99.90;;;;;;4934179;29;20221;-83
2023/03/17 13:14:42;;;;;;;9.60;8.80;;;19.50;99.90;;;;;;4945776;29;20200;-82
2023/03/17 13:17:30;;;;;;;9.33;8.63;;;19.50;99.90;;;;;;4952482;29;20712;-83
2023/03/17 13:20:14;;;;;;;9.20;8.50;;;19.60;99.90;;;;;;4942216;29;20202;-82
2023/03/17 13:23:02;;;;;;;9.00;8.40;;;19.60;99.90;;;;;;4951838;29;20222;-82
2023/03/17 13:25:32;;;;;;;8.83;8.23;;;19.70;99.90;;;;;;4946756;29;20202;-80
2023/03/17 13:28:25;;;;;;;9.30;8.50;;;19.80;99.90;;;;;;4937911;29;20226;-80
2023/03/17 13:31:08;;;;;;;8.63;7.87;;;19.70;99.90;;;;;;4933924;29;20597;-81
2023/03/17 13:33:40;;;;;;;8.97;8.27;;;19.80;99.90;;;;;;4948458;29;20210;-80
2023/03/17 13:36:26;;;;;;;8.13;7.53;;;19.90;99.90;;;;;;4944007;29;20198;-79
2023/03/17 13:39:19;;;;;;;8.77;8.17;;;19.90;99.90;;;;;;4943603;28;20203;-82
2023/03/17 13:41:58;;;;;;;8.40;7.90;;;20.00;99.90;;;;;;4938615;29;20290;-79
2023/03/17 13:44:38;;;;;;;8.40;7.90;;;20.00;99.90;;;;;;4929883;29;20274;-80
2023/03/17 13:47:31;;;;;;;8.83;8.23;;;20.10;99.90;;;;;;4934761;29;20318;-79
2023/03/17 13:50:03;;;;;;;8.63;7.93;;;20.10;99.90;;;;;;4926514;29;20396;-80
2023/03/17 13:52:33;;;;;;;8.70;8.00;;;20.10;99.90;;;;;;4932537;29;20234;-79
2023/03/17 13:55:04;;;;;;;8.63;8.03;;;20.10;99.90;;;;;;4933922;29;20259;-79
2023/03/17 13:57:36;;;;;;;9.07;8.47;;;20.00;99.90;;;;;;4942062;29;20318;-80
2023/03/17 14:00:20;;;;;;;9.23;8.63;;;19.90;99.90;;;;;;4961074;28;20289;-81
2023/03/17 14:02:49;;;;;;;9.17;8.57;;;19.70;99.90;;;;;;4946888;29;20234;-80
2023/03/17 14:05:22;;;;;;;9.10;8.50;;;19.80;99.90;;;;;;4949066;29;20577;-81
2023/03/17 14:07:54;;;;;;;9.30;8.70;;;19.70;99.90;;;;;;4948476;28;20270;-80
2023/03/17 14:10:24;;;;;;;10.23;8.33;;;19.80;99.90;;;;;;4953291;29;20214;-79
2023/03/17 14:12:58;;;;;;;9.20;8.60;;;19.80;99.90;;;;;;4955998;29;20564;-79
2023/03/17 14:15:32;;;;;;;9.50;8.90;;;19.80;99.80;;;;;;4940562;29;20335;-80
2023/03/17 14:18:03;;;;;;;9.60;8.90;;;19.70;99.90;;;;;;4941792;29;20195;-79
2023/03/17 14:20:30;;;;;;;8.40;7.70;;;19.80;99.90;;;;;;4949541;29;20210;-80
2023/03/17 14:23:00;;;;;;;8.97;8.37;;;19.80;98.90;;;;;;4951919;29;20293;-80
2023/03/17 14:25:32;;;;;;;8.60;8.10;;;19.80;97.30;;;;;;4951090;29;20257;-80
2023/03/17 14:27:59;;;;;;;8.70;8.13;;;19.80;98.40;;;;;;4953040;29;20219;-80
2023/03/17 14:30:30;;;;;;;8.20;7.70;;;19.80;99.50;;;;;;4950442;29;20651;-79
2023/03/17 14:33:01;;;;;;;8.90;8.30;;;19.80;99.00;;;;;;4952933;29;20202;-80
2023/03/17 14:35:33;;;;;;;8.27;7.77;;;19.70;98.40;;;;;;4968187;28;20195;-79
2023/03/17 14:38:01;;;;;;;8.07;7.57;;;19.70;97.90;;;;;;4939471;29;20673;-79
2023/03/17 14:40:31;;;;;;;8.90;8.13;;;19.70;98.00;;;;;;4952595;29;20203;-80
2023/03/17 14:42:58;;;;;;;8.30;7.70;;;19.70;97.30;;;;;;4943274;29;20645;-85
2023/03/17 14:45:42;;;;;;;8.40;7.80;;;19.70;97.80;;;;;;4947891;29;20210;-85
2023/03/17 14:48:12;;;;;;;8.20;7.70;;;19.70;97.80;;;;;;4940770;29;20229;-85
2023/03/17 14:50:49;;;;;;;8.40;7.90;;;19.70;98.00;;;;;;4947662;29;20213;-85
2023/03/17 14:53:16;;;;;;;8.90;8.20;;;19.70;98.90;;;;;;4942421;29;20202;-80
2023/03/17 14:55:43;;;;;;;8.40;7.90;;;19.70;98.40;;;;;;4948401;29;20202;-81
2023/03/17 14:58:21;;;;;;;8.23;7.73;;;19.70;98.00;;;;;;4948883;29;20203;-82
2023/03/17 15:00:57;;;;;;;7.90;7.40;;;19.70;97.90;;;;;;4938160;29;20324;-82
2023/03/17 15:03:27;;;;;;;8.10;7.60;;;19.80;97.80;;;;;;4952928;28;20205;-83
2023/03/17 15:06:05;;;;;;;8.13;7.63;;;19.80;97.80;;;;;;4949919;29;20210;-83
2023/03/17 15:08:48;;;;;;;7.93;7.53;;;19.80;97.30;;;;;;4945664;29;20300;-82
2023/03/17 15:11:21;;;;;;;8.50;8.00;;;19.80;98.00;;;;;;4934540;29;20767;-82
2023/03/17 15:13:48;;;;;;;8.40;7.80;;;19.80;97.50;;;;;;4953322;29;20581;-81
2023/03/17 15:16:21;;;;;;;8.30;7.80;;;19.80;97.30;;;;;;4944697;29;20738;-83
2023/03/17 15:18:54;;;;;;;8.40;7.80;;;19.70;97.70;;;;;;4944391;29;20211;-82
2023/03/17 15:21:32;;;;;;;9.63;8.53;;;19.70;97.30;;;;;;4938364;29;20777;-81
2023/03/17 15:24:04;;;;;;;8.33;7.83;;;19.70;97.30;;;;;;4950688;28;20254;-81
2023/03/17 15:26:31;;;;;;;8.50;7.90;;;19.60;98.10;;;;;;4951271;28;20237;-81
2023/03/17 15:28:59;;;;;;;8.90;8.30;;;19.50;98.30;;;;;;4932409;29;20899;-80
2023/03/17 15:31:29;;;;;;;8.40;7.80;;;19.40;98.10;;;;;;4940246;29;20223;-80
2023/03/17 15:33:57;;;;;;;8.30;7.70;;;19.40;98.40;;;;;;4928316;29;20884;-81
2023/03/17 15:36:24;;;;;;;7.93;7.43;;;19.30;98.40;;;;;;4942019;29;20230;-83
2023/03/17 15:38:52;;;;;;;8.37;7.87;;;19.30;98.50;;;;;;4949427;29;20588;-84
2023/03/17 15:41:19;;;;;;;8.27;7.77;;;19.20;98.20;;;;;;4953303;29;20219;-83
2023/03/17 15:43:46;;;;;;;8.20;7.70;;;19.10;98.10;;;;;;4951705;29;20210;-84
2023/03/17 15:46:22;;;;;;;8.80;8.10;;;19.10;98.90;;;;;;4934206;29;20634;-81
2023/03/17 15:48:50;;;;;;;8.80;8.30;;;19.00;99.10;;;;;;4938283;29;20657;-80
2023/03/17 15:51:17;;;;;;;8.70;8.20;;;19.00;98.70;;;;;;4938459;29;20233;-81
2023/03/17 15:53:46;;;;;;;9.03;8.43;;;18.90;99.10;;;;;;4966646;28;20228;-82
2023/03/17 15:56:17;;;;;;;8.70;8.07;;;18.90;98.70;;;;;;4946285;29;20206;-83
2023/03/17 15:58:46;;;;;;;8.13;7.63;;;18.80;99.20;;;;;;4936435;29;20643;-79